sensor_id;sensor_type;location;lat;lon;timestamp;P1;durP1;ratioP1;P2;durP2;ratioP2
6015;SDS011;3036;49.960;8.454;2023-02-01T00:00:14;2.87;;;0.80;;
6015;SDS011;3036;49.960;8.454;2023-02-01T00:02:41;0.70;;;0.70;;
6015;SDS011;3036;49.960;8.454;2023-02-01T00:05:10;0.80;;;0.80;;
6015;SDS011;3036;49.960;8.454;2023-02-01T00:07:37;0.80;;;0.80;;
6015;SDS011;3036;49.960;8.454;2023-02-01T00:10:04;1.03;;;1.03;;
6015;SDS011;3036;49.960;8.454;2023-02-01T00:12:32;4.27;;;1.00;;
6015;SDS011;3036;49.960;8.454;2023-02-01T00:15:00;0.87;;;0.87;;
6015;SDS011;3036;49.960;8.454;2023-02-01T00:17:27;0.90;;;0.90;;
6015;SDS011;3036;49.960;8.454;2023-02-01T00:19:54;0.77;;;0.77;;
6015;SDS011;3036;49.960;8.454;2023-02-01T00:22:22;0.87;;;0.87;;
6015;SDS011;3036;49.960;8.454;2023-02-01T00:24:49;1.17;;;1.10;;
6015;SDS011;3036;49.960;8.454;2023-02-01T00:27:16;0.80;;;0.80;;
6015;SDS011;3036;49.960;8.454;2023-02-01T00:29:46;2.77;;;1.03;;
6015;SDS011;3036;49.960;8.454;2023-02-01T00:32:13;1.07;;;1.07;;
6015;SDS011;3036;49.960;8.454;2023-02-01T00:34:40;1.33;;;1.33;;
6015;SDS011;3036;49.960;8.454;2023-02-01T00:37:07;1.90;;;1.00;;
6015;SDS011;3036;49.960;8.454;2023-02-01T00:39:35;1.30;;;1.10;;
6015;SDS011;3036;49.960;8.454;2023-02-01T00:42:02;1.13;;;1.13;;
6015;SDS011;3036;49.960;8.454;2023-02-01T00:44:29;1.13;;;1.13;;
6015;SDS011;3036;49.960;8.454;2023-02-01T00:46:59;1.20;;;1.20;;
6015;SDS011;3036;49.960;8.454;2023-02-01T00:49:26;0.90;;;0.90;;
6015;SDS011;3036;49.960;8.454;2023-02-01T00:51:53;1.80;;;0.90;;
6015;SDS011;3036;49.960;8.454;2023-02-01T00:54:20;1.90;;;0.80;;
6015;SDS011;3036;49.960;8.454;2023-02-01T00:56:49;2.87;;;1.30;;
6015;SDS011;3036;49.960;8.454;2023-02-01T00:59:16;1.33;;;1.20;;
6015;SDS011;3036;49.960;8.454;2023-02-01T01:01:43;1.20;;;1.20;;
6015;SDS011;3036;49.960;8.454;2023-02-01T01:04:13;1.30;;;1.30;;
6015;SDS011;3036;49.960;8.454;2023-02-01T01:06:40;1.33;;;1.23;;
6015;SDS011;3036;49.960;8.454;2023-02-01T01:09:07;1.80;;;1.10;;
6015;SDS011;3036;49.960;8.454;2023-02-01T01:11:35;1.90;;;1.30;;
6015;SDS011;3036;49.960;8.454;2023-02-01T01:14:04;1.10;;;1.10;;
6015;SDS011;3036;49.960;8.454;2023-02-01T01:16:31;1.17;;;1.03;;
6015;SDS011;3036;49.960;8.454;2023-02-01T01:18:59;1.33;;;1.23;;
6015;SDS011;3036;49.960;8.454;2023-02-01T01:21:26;1.23;;;1.23;;
6015;SDS011;3036;49.960;8.454;2023-02-01T01:23:53;1.50;;;1.50;;
6015;SDS011;3036;49.960;8.454;2023-02-01T01:26:21;2.23;;;1.80;;
6015;SDS011;3036;49.960;8.454;2023-02-01T01:28:49;4.40;;;1.70;;
6015;SDS011;3036;49.960;8.454;2023-02-01T01:31:18;1.67;;;1.53;;
6015;SDS011;3036;49.960;8.454;2023-02-01T01:33:47;1.70;;;1.50;;
6015;SDS011;3036;49.960;8.454;2023-02-01T01:36:14;2.50;;;1.40;;
6015;SDS011;3036;49.960;8.454;2023-02-01T01:38:42;2.80;;;1.20;;
6015;SDS011;3036;49.960;8.454;2023-02-01T01:41:11;1.10;;;1.10;;
6015;SDS011;3036;49.960;8.454;2023-02-01T01:43:53;1.20;;;1.20;;
6015;SDS011;3036;49.960;8.454;2023-02-01T01:46:22;4.60;;;1.63;;
6015;SDS011;3036;49.960;8.454;2023-02-01T01:48:51;3.13;;;1.67;;
6015;SDS011;3036;49.960;8.454;2023-02-01T01:51:19;1.70;;;1.60;;
6015;SDS011;3036;49.960;8.454;2023-02-01T01:53:48;1.83;;;1.73;;
6015;SDS011;3036;49.960;8.454;2023-02-01T01:56:16;1.57;;;1.47;;
6015;SDS011;3036;49.960;8.454;2023-02-01T01:58:44;2.40;;;1.97;;
6015;SDS011;3036;49.960;8.454;2023-02-01T02:01:11;1.43;;;1.33;;
6015;SDS011;3036;49.960;8.454;2023-02-01T02:03:40;1.43;;;1.43;;
6015;SDS011;3036;49.960;8.454;2023-02-01T02:06:11;1.70;;;1.60;;
6015;SDS011;3036;49.960;8.454;2023-02-01T02:08:39;2.07;;;1.87;;
6015;SDS011;3036;49.960;8.454;2023-02-01T02:11:06;3.03;;;1.70;;
6015;SDS011;3036;49.960;8.454;2023-02-01T02:13:35;2.03;;;1.40;;
6015;SDS011;3036;49.960;8.454;2023-02-01T02:18:54;4.10;;;1.50;;
6015;SDS011;3036;49.960;8.454;2023-02-01T02:21:23;1.70;;;1.60;;
6015;SDS011;3036;49.960;8.454;2023-02-01T02:24:03;1.80;;;1.47;;
6015;SDS011;3036;49.960;8.454;2023-02-01T02:26:39;1.93;;;1.77;;
6015;SDS011;3036;49.960;8.454;2023-02-01T02:34:40;1.60;;;1.50;;
6015;SDS011;3036;49.960;8.454;2023-02-01T02:37:12;5.30;;;1.73;;
6015;SDS011;3036;49.960;8.454;2023-02-01T02:39:44;2.10;;;2.00;;
6015;SDS011;3036;49.960;8.454;2023-02-01T02:42:16;2.10;;;1.57;;
6015;SDS011;3036;49.960;8.454;2023-02-01T02:45:20;1.60;;;1.50;;
6015;SDS011;3036;49.960;8.454;2023-02-01T02:48:08;1.57;;;1.53;;
6015;SDS011;3036;49.960;8.454;2023-02-01T02:50:40;1.93;;;1.13;;
6015;SDS011;3036;49.960;8.454;2023-02-01T02:53:27;1.97;;;1.87;;
6015;SDS011;3036;49.960;8.454;2023-02-01T02:56:13;1.43;;;1.33;;
6015;SDS011;3036;49.960;8.454;2023-02-01T02:58:59;1.20;;;1.20;;
6015;SDS011;3036;49.960;8.454;2023-02-01T03:01:44;2.60;;;2.07;;
6015;SDS011;3036;49.960;8.454;2023-02-01T03:04:28;1.67;;;1.63;;
6015;SDS011;3036;49.960;8.454;2023-02-01T03:06:57;2.50;;;1.73;;
6015;SDS011;3036;49.960;8.454;2023-02-01T03:09:26;1.67;;;1.57;;
6015;SDS011;3036;49.960;8.454;2023-02-01T03:11:55;4.73;;;1.60;;
6015;SDS011;3036;49.960;8.454;2023-02-01T03:14:43;1.43;;;1.23;;
6015;SDS011;3036;49.960;8.454;2023-02-01T03:17:13;2.17;;;1.67;;
6015;SDS011;3036;49.960;8.454;2023-02-01T03:19:42;2.10;;;1.57;;
6015;SDS011;3036;49.960;8.454;2023-02-01T03:22:15;2.10;;;1.97;;
6015;SDS011;3036;49.960;8.454;2023-02-01T03:24:44;2.03;;;1.93;;
6015;SDS011;3036;49.960;8.454;2023-02-01T03:27:13;1.93;;;1.77;;
6015;SDS011;3036;49.960;8.454;2023-02-01T03:29:42;3.87;;;1.87;;
6015;SDS011;3036;49.960;8.454;2023-02-01T03:32:11;1.30;;;1.30;;
6015;SDS011;3036;49.960;8.454;2023-02-01T03:34:38;1.30;;;1.30;;
6015;SDS011;3036;49.960;8.454;2023-02-01T03:37:06;1.43;;;1.23;;
6015;SDS011;3036;49.960;8.454;2023-02-01T03:39:38;3.40;;;1.60;;
6015;SDS011;3036;49.960;8.454;2023-02-01T03:42:08;4.23;;;1.60;;
6015;SDS011;3036;49.960;8.454;2023-02-01T03:44:38;4.83;;;2.10;;
6015;SDS011;3036;49.960;8.454;2023-02-01T03:47:06;2.33;;;1.90;;
6015;SDS011;3036;49.960;8.454;2023-02-01T03:49:35;3.00;;;1.40;;
6015;SDS011;3036;49.960;8.454;2023-02-01T03:52:03;2.20;;;1.50;;
6015;SDS011;3036;49.960;8.454;2023-02-01T03:54:32;1.50;;;1.40;;
6015;SDS011;3036;49.960;8.454;2023-02-01T03:57:01;3.03;;;1.83;;
6015;SDS011;3036;49.960;8.454;2023-02-01T03:59:30;2.40;;;1.33;;
6015;SDS011;3036;49.960;8.454;2023-02-01T04:01:57;4.70;;;1.47;;
6015;SDS011;3036;49.960;8.454;2023-02-01T04:04:24;1.17;;;1.17;;
6015;SDS011;3036;49.960;8.454;2023-02-01T04:06:51;1.77;;;1.67;;
6015;SDS011;3036;49.960;8.454;2023-02-01T04:09:18;1.87;;;1.70;;
6015;SDS011;3036;49.960;8.454;2023-02-01T04:11:45;1.83;;;1.73;;
6015;SDS011;3036;49.960;8.454;2023-02-01T04:14:13;1.43;;;1.43;;
6015;SDS011;3036;49.960;8.454;2023-02-01T04:16:40;1.60;;;1.50;;
6015;SDS011;3036;49.960;8.454;2023-02-01T04:19:07;2.00;;;1.57;;
6015;SDS011;3036;49.960;8.454;2023-02-01T04:21:35;1.87;;;1.60;;
6015;SDS011;3036;49.960;8.454;2023-02-01T04:24:02;3.90;;;1.27;;
6015;SDS011;3036;49.960;8.454;2023-02-01T04:26:29;1.40;;;1.10;;
6015;SDS011;3036;49.960;8.454;2023-02-01T04:28:56;1.50;;;1.40;;
6015;SDS011;3036;49.960;8.454;2023-02-01T04:31:24;1.20;;;1.20;;
6015;SDS011;3036;49.960;8.454;2023-02-01T04:33:52;3.77;;;1.57;;
6015;SDS011;3036;49.960;8.454;2023-02-01T04:36:20;1.30;;;1.20;;
6015;SDS011;3036;49.960;8.454;2023-02-01T04:38:48;1.43;;;1.30;;
6015;SDS011;3036;49.960;8.454;2023-02-01T04:41:15;2.30;;;1.60;;
6015;SDS011;3036;49.960;8.454;2023-02-01T04:43:43;1.10;;;1.10;;
6015;SDS011;3036;49.960;8.454;2023-02-01T04:46:10;0.87;;;0.87;;
6015;SDS011;3036;49.960;8.454;2023-02-01T04:48:39;2.47;;;1.30;;
6015;SDS011;3036;49.960;8.454;2023-02-01T04:51:06;1.00;;;1.00;;
6015;SDS011;3036;49.960;8.454;2023-02-01T04:53:33;4.30;;;1.20;;
6015;SDS011;3036;49.960;8.454;2023-02-01T04:56:00;0.90;;;0.90;;
6015;SDS011;3036;49.960;8.454;2023-02-01T04:58:27;0.80;;;0.80;;
6015;SDS011;3036;49.960;8.454;2023-02-01T05:00:54;0.90;;;0.90;;
6015;SDS011;3036;49.960;8.454;2023-02-01T05:03:21;0.70;;;0.70;;
6015;SDS011;3036;49.960;8.454;2023-02-01T05:05:49;1.77;;;1.20;;
6015;SDS011;3036;49.960;8.454;2023-02-01T05:08:18;1.07;;;1.00;;
6015;SDS011;3036;49.960;8.454;2023-02-01T05:10:47;1.20;;;1.20;;
6015;SDS011;3036;49.960;8.454;2023-02-01T05:13:14;1.50;;;1.27;;
6015;SDS011;3036;49.960;8.454;2023-02-01T05:15:59;1.60;;;1.50;;
6015;SDS011;3036;49.960;8.454;2023-02-01T05:18:26;1.60;;;1.50;;
6015;SDS011;3036;49.960;8.454;2023-02-01T05:20:55;1.00;;;1.00;;
6015;SDS011;3036;49.960;8.454;2023-02-01T05:23:22;0.83;;;0.83;;
6015;SDS011;3036;49.960;8.454;2023-02-01T05:25:49;0.80;;;0.80;;
6015;SDS011;3036;49.960;8.454;2023-02-01T05:28:16;1.30;;;1.20;;
6015;SDS011;3036;49.960;8.454;2023-02-01T05:30:43;0.77;;;0.70;;
6015;SDS011;3036;49.960;8.454;2023-02-01T05:33:10;2.43;;;1.30;;
6015;SDS011;3036;49.960;8.454;2023-02-01T05:35:37;4.70;;;1.00;;
6015;SDS011;3036;49.960;8.454;2023-02-01T05:38:05;1.23;;;0.90;;
6015;SDS011;3036;49.960;8.454;2023-02-01T05:40:32;4.63;;;1.37;;
6015;SDS011;3036;49.960;8.454;2023-02-01T05:42:59;1.03;;;1.03;;
6015;SDS011;3036;49.960;8.454;2023-02-01T05:45:26;4.80;;;1.27;;
6015;SDS011;3036;49.960;8.454;2023-02-01T05:47:53;1.23;;;1.17;;
6015;SDS011;3036;49.960;8.454;2023-02-01T05:50:20;1.23;;;0.83;;
6015;SDS011;3036;49.960;8.454;2023-02-01T05:52:47;1.00;;;0.90;;
6015;SDS011;3036;49.960;8.454;2023-02-01T05:55:16;2.63;;;0.70;;
6015;SDS011;3036;49.960;8.454;2023-02-01T05:57:43;4.67;;;0.97;;
6015;SDS011;3036;49.960;8.454;2023-02-01T06:00:10;0.60;;;0.57;;
6015;SDS011;3036;49.960;8.454;2023-02-01T06:02:37;4.77;;;1.17;;
6015;SDS011;3036;49.960;8.454;2023-02-01T06:05:06;2.20;;;0.90;;
6015;SDS011;3036;49.960;8.454;2023-02-01T06:07:33;0.77;;;0.60;;
6015;SDS011;3036;49.960;8.454;2023-02-01T06:10:00;0.93;;;0.93;;
6015;SDS011;3036;49.960;8.454;2023-02-01T06:12:28;1.00;;;0.90;;
6015;SDS011;3036;49.960;8.454;2023-02-01T06:14:55;5.83;;;1.00;;
6015;SDS011;3036;49.960;8.454;2023-02-01T06:17:23;1.90;;;0.40;;
6015;SDS011;3036;49.960;8.454;2023-02-01T06:19:50;0.40;;;0.40;;
6015;SDS011;3036;49.960;8.454;2023-02-01T06:22:17;0.27;;;0.27;;
6015;SDS011;3036;49.960;8.454;2023-02-01T06:24:47;2.47;;;0.40;;
6015;SDS011;3036;49.960;8.454;2023-02-01T06:27:14;0.60;;;0.60;;
6015;SDS011;3036;49.960;8.454;2023-02-01T06:29:42;1.13;;;0.80;;
6015;SDS011;3036;49.960;8.454;2023-02-01T06:32:09;2.83;;;0.53;;
6015;SDS011;3036;49.960;8.454;2023-02-01T06:34:36;5.60;;;0.40;;
6015;SDS011;3036;49.960;8.454;2023-02-01T06:37:04;0.67;;;0.67;;
6015;SDS011;3036;49.960;8.454;2023-02-01T06:39:31;0.43;;;0.37;;
6015;SDS011;3036;49.960;8.454;2023-02-01T06:41:58;3.13;;;0.50;;
6015;SDS011;3036;49.960;8.454;2023-02-01T06:44:25;0.70;;;0.40;;
6015;SDS011;3036;49.960;8.454;2023-02-01T06:46:54;0.83;;;0.30;;
6015;SDS011;3036;49.960;8.454;2023-02-01T06:49:21;0.57;;;0.57;;
6015;SDS011;3036;49.960;8.454;2023-02-01T06:51:48;0.43;;;0.43;;
6015;SDS011;3036;49.960;8.454;2023-02-01T06:54:15;2.17;;;0.70;;
6015;SDS011;3036;49.960;8.454;2023-02-01T06:56:42;0.60;;;0.60;;
6015;SDS011;3036;49.960;8.454;2023-02-01T06:59:09;1.30;;;0.60;;
6015;SDS011;3036;49.960;8.454;2023-02-01T07:01:37;2.40;;;1.07;;
6015;SDS011;3036;49.960;8.454;2023-02-01T07:04:05;1.50;;;0.60;;
6015;SDS011;3036;49.960;8.454;2023-02-01T07:06:32;7.13;;;0.80;;
6015;SDS011;3036;49.960;8.454;2023-02-01T07:08:59;0.73;;;0.70;;
6015;SDS011;3036;49.960;8.454;2023-02-01T07:11:26;7.30;;;1.03;;
6015;SDS011;3036;49.960;8.454;2023-02-01T07:13:53;1.70;;;0.63;;
6015;SDS011;3036;49.960;8.454;2023-02-01T07:16:20;0.50;;;0.50;;
6015;SDS011;3036;49.960;8.454;2023-02-01T07:18:47;5.00;;;1.13;;
6015;SDS011;3036;49.960;8.454;2023-02-01T07:21:17;7.63;;;0.47;;
6015;SDS011;3036;49.960;8.454;2023-02-01T07:23:44;3.37;;;0.90;;
6015;SDS011;3036;49.960;8.454;2023-02-01T07:26:12;4.67;;;0.80;;
6015;SDS011;3036;49.960;8.454;2023-02-01T07:28:39;2.57;;;0.57;;
6015;SDS011;3036;49.960;8.454;2023-02-01T07:31:07;2.17;;;0.83;;
6015;SDS011;3036;49.960;8.454;2023-02-01T07:33:34;0.90;;;0.90;;
6015;SDS011;3036;49.960;8.454;2023-02-01T07:36:02;2.00;;;0.70;;
6015;SDS011;3036;49.960;8.454;2023-02-01T07:38:31;0.77;;;0.77;;
6015;SDS011;3036;49.960;8.454;2023-02-01T07:40:59;0.97;;;0.67;;
6015;SDS011;3036;49.960;8.454;2023-02-01T07:43:26;4.20;;;0.93;;
6015;SDS011;3036;49.960;8.454;2023-02-01T07:45:53;1.60;;;1.03;;
6015;SDS011;3036;49.960;8.454;2023-02-01T07:48:21;2.40;;;0.60;;
6015;SDS011;3036;49.960;8.454;2023-02-01T07:50:48;5.10;;;1.33;;
6015;SDS011;3036;49.960;8.454;2023-02-01T07:53:23;3.77;;;0.93;;
6015;SDS011;3036;49.960;8.454;2023-02-01T07:55:51;2.13;;;1.10;;
6015;SDS011;3036;49.960;8.454;2023-02-01T07:58:18;1.17;;;1.07;;
6015;SDS011;3036;49.960;8.454;2023-02-01T08:00:45;1.40;;;0.80;;
6015;SDS011;3036;49.960;8.454;2023-02-01T08:03:29;4.80;;;1.40;;
6015;SDS011;3036;49.960;8.454;2023-02-01T08:05:57;4.67;;;1.00;;
6015;SDS011;3036;49.960;8.454;2023-02-01T08:08:24;1.50;;;0.90;;
6015;SDS011;3036;49.960;8.454;2023-02-01T08:10:56;0.67;;;0.67;;
6015;SDS011;3036;49.960;8.454;2023-02-01T08:13:23;3.07;;;1.00;;
6015;SDS011;3036;49.960;8.454;2023-02-01T08:15:50;3.33;;;1.17;;
6015;SDS011;3036;49.960;8.454;2023-02-01T08:18:17;3.53;;;1.10;;
6015;SDS011;3036;49.960;8.454;2023-02-01T08:20:45;1.17;;;0.80;;
6015;SDS011;3036;49.960;8.454;2023-02-01T08:23:12;5.43;;;0.83;;
6015;SDS011;3036;49.960;8.454;2023-02-01T08:25:39;0.97;;;0.90;;
6015;SDS011;3036;49.960;8.454;2023-02-01T08:28:08;4.73;;;1.03;;
6015;SDS011;3036;49.960;8.454;2023-02-01T08:30:36;1.40;;;1.30;;
6015;SDS011;3036;49.960;8.454;2023-02-01T08:33:03;0.73;;;0.73;;
6015;SDS011;3036;49.960;8.454;2023-02-01T08:35:31;1.70;;;0.90;;
6015;SDS011;3036;49.960;8.454;2023-02-01T08:37:59;0.90;;;0.90;;
6015;SDS011;3036;49.960;8.454;2023-02-01T08:40:29;2.33;;;1.00;;
6015;SDS011;3036;49.960;8.454;2023-02-01T08:42:56;0.97;;;0.97;;
6015;SDS011;3036;49.960;8.454;2023-02-01T08:45:25;3.37;;;1.13;;
6015;SDS011;3036;49.960;8.454;2023-02-01T08:47:53;8.03;;;1.40;;
6015;SDS011;3036;49.960;8.454;2023-02-01T08:50:21;9.10;;;1.70;;
6015;SDS011;3036;49.960;8.454;2023-02-01T08:52:48;4.07;;;1.10;;
6015;SDS011;3036;49.960;8.454;2023-02-01T08:55:15;2.13;;;1.00;;
6015;SDS011;3036;49.960;8.454;2023-02-01T08:57:43;8.13;;;1.23;;
6015;SDS011;3036;49.960;8.454;2023-02-01T09:00:11;7.60;;;1.40;;
6015;SDS011;3036;49.960;8.454;2023-02-01T09:02:39;1.87;;;1.13;;
6015;SDS011;3036;49.960;8.454;2023-02-01T09:05:07;7.70;;;1.83;;
6015;SDS011;3036;49.960;8.454;2023-02-01T09:07:35;4.10;;;0.90;;
6015;SDS011;3036;49.960;8.454;2023-02-01T09:10:02;5.73;;;1.23;;
6015;SDS011;3036;49.960;8.454;2023-02-01T09:12:29;3.30;;;1.10;;
6015;SDS011;3036;49.960;8.454;2023-02-01T09:14:57;3.40;;;1.00;;
6015;SDS011;3036;49.960;8.454;2023-02-01T09:17:24;2.73;;;0.83;;
6015;SDS011;3036;49.960;8.454;2023-02-01T09:19:53;1.23;;;0.87;;
6015;SDS011;3036;49.960;8.454;2023-02-01T09:22:20;11.67;;;1.00;;
6015;SDS011;3036;49.960;8.454;2023-02-01T09:24:47;5.50;;;1.17;;
6015;SDS011;3036;49.960;8.454;2023-02-01T09:27:14;2.37;;;1.20;;
6015;SDS011;3036;49.960;8.454;2023-02-01T09:29:41;1.43;;;1.00;;
6015;SDS011;3036;49.960;8.454;2023-02-01T09:32:08;2.63;;;1.00;;
6015;SDS011;3036;49.960;8.454;2023-02-01T09:34:35;5.93;;;1.27;;
6015;SDS011;3036;49.960;8.454;2023-02-01T09:37:03;5.00;;;1.30;;
6015;SDS011;3036;49.960;8.454;2023-02-01T09:39:31;1.03;;;0.80;;
6015;SDS011;3036;49.960;8.454;2023-02-01T09:41:59;6.67;;;0.77;;
6015;SDS011;3036;49.960;8.454;2023-02-01T09:44:32;2.57;;;0.60;;
6015;SDS011;3036;49.960;8.454;2023-02-01T09:47:03;1.63;;;0.60;;
6015;SDS011;3036;49.960;8.454;2023-02-01T09:49:31;3.87;;;0.87;;
6015;SDS011;3036;49.960;8.454;2023-02-01T09:52:00;6.23;;;0.97;;
6015;SDS011;3036;49.960;8.454;2023-02-01T09:54:33;1.80;;;0.80;;
6015;SDS011;3036;49.960;8.454;2023-02-01T09:57:06;2.80;;;1.50;;
6015;SDS011;3036;49.960;8.454;2023-02-01T09:59:34;5.97;;;0.90;;
6015;SDS011;3036;49.960;8.454;2023-02-01T10:02:09;2.83;;;0.63;;
6015;SDS011;3036;49.960;8.454;2023-02-01T10:04:36;3.70;;;0.90;;
6015;SDS011;3036;49.960;8.454;2023-02-01T10:07:15;2.60;;;0.60;;
6015;SDS011;3036;49.960;8.454;2023-02-01T10:09:49;12.47;;;0.90;;
6015;SDS011;3036;49.960;8.454;2023-02-01T10:12:29;1.27;;;0.80;;
6015;SDS011;3036;49.960;8.454;2023-02-01T10:14:59;5.53;;;0.97;;
6015;SDS011;3036;49.960;8.454;2023-02-01T10:17:31;4.57;;;0.70;;
6015;SDS011;3036;49.960;8.454;2023-02-01T10:20:07;2.57;;;0.70;;
6015;SDS011;3036;49.960;8.454;2023-02-01T10:22:40;0.70;;;0.70;;
6015;SDS011;3036;49.960;8.454;2023-02-01T10:25:11;3.13;;;0.80;;
6015;SDS011;3036;49.960;8.454;2023-02-01T10:27:39;5.10;;;1.13;;
6015;SDS011;3036;49.960;8.454;2023-02-01T10:30:13;1.97;;;0.77;;
6015;SDS011;3036;49.960;8.454;2023-02-01T10:32:42;1.57;;;0.83;;
6015;SDS011;3036;49.960;8.454;2023-02-01T10:35:11;6.20;;;1.00;;
6015;SDS011;3036;49.960;8.454;2023-02-01T10:37:40;1.13;;;0.83;;
6015;SDS011;3036;49.960;8.454;2023-02-01T10:40:12;2.13;;;0.60;;
6015;SDS011;3036;49.960;8.454;2023-02-01T10:42:41;4.43;;;0.90;;
6015;SDS011;3036;49.960;8.454;2023-02-01T10:45:11;2.13;;;0.77;;
6015;SDS011;3036;49.960;8.454;2023-02-01T10:47:39;6.90;;;1.27;;
6015;SDS011;3036;49.960;8.454;2023-02-01T10:50:10;2.23;;;0.70;;
6015;SDS011;3036;49.960;8.454;2023-02-01T10:52:41;8.83;;;0.80;;
6015;SDS011;3036;49.960;8.454;2023-02-01T10:57:57;2.63;;;0.80;;
6015;SDS011;3036;49.960;8.454;2023-02-01T11:00:24;2.13;;;0.50;;
6015;SDS011;3036;49.960;8.454;2023-02-01T11:02:51;6.40;;;1.50;;
6015;SDS011;3036;49.960;8.454;2023-02-01T11:05:18;6.70;;;1.17;;
6015;SDS011;3036;49.960;8.454;2023-02-01T11:07:48;3.27;;;0.83;;
6015;SDS011;3036;49.960;8.454;2023-02-01T11:12:59;0.50;;;0.50;;
6015;SDS011;3036;49.960;8.454;2023-02-01T11:15:28;1.03;;;0.73;;
6015;SDS011;3036;49.960;8.454;2023-02-01T11:17:55;0.50;;;0.50;;
6015;SDS011;3036;49.960;8.454;2023-02-01T11:20:32;7.43;;;0.77;;
6015;SDS011;3036;49.960;8.454;2023-02-01T11:23:00;2.63;;;0.77;;
6015;SDS011;3036;49.960;8.454;2023-02-01T11:25:28;4.43;;;1.07;;
6015;SDS011;3036;49.960;8.454;2023-02-01T11:27:55;2.73;;;1.30;;
6015;SDS011;3036;49.960;8.454;2023-02-01T11:30:27;1.20;;;1.10;;
6015;SDS011;3036;49.960;8.454;2023-02-01T11:32:58;1.50;;;0.70;;
6015;SDS011;3036;49.960;8.454;2023-02-01T11:35:26;3.03;;;0.97;;
6015;SDS011;3036;49.960;8.454;2023-02-01T11:37:54;4.83;;;0.90;;
6015;SDS011;3036;49.960;8.454;2023-02-01T11:40:26;2.53;;;1.33;;
6015;SDS011;3036;49.960;8.454;2023-02-01T11:42:53;1.70;;;1.00;;
6015;SDS011;3036;49.960;8.454;2023-02-01T11:45:24;4.30;;;0.80;;
6015;SDS011;3036;49.960;8.454;2023-02-01T11:47:53;1.57;;;0.90;;
6015;SDS011;3036;49.960;8.454;2023-02-01T11:50:22;4.33;;;0.87;;
6015;SDS011;3036;49.960;8.454;2023-02-01T11:53:00;4.93;;;0.97;;
6015;SDS011;3036;49.960;8.454;2023-02-01T11:58:20;2.13;;;1.00;;
6015;SDS011;3036;49.960;8.454;2023-02-01T12:00:55;2.67;;;0.67;;
6015;SDS011;3036;49.960;8.454;2023-02-01T12:06:18;3.13;;;0.60;;
6015;SDS011;3036;49.960;8.454;2023-02-01T12:08:59;2.93;;;0.80;;
6015;SDS011;3036;49.960;8.454;2023-02-01T12:11:32;3.40;;;1.10;;
6015;SDS011;3036;49.960;8.454;2023-02-01T12:14:05;3.73;;;0.97;;
6015;SDS011;3036;49.960;8.454;2023-02-01T12:16:37;2.03;;;0.80;;
6015;SDS011;3036;49.960;8.454;2023-02-01T12:19:12;4.73;;;0.90;;
6015;SDS011;3036;49.960;8.454;2023-02-01T12:21:50;3.87;;;0.73;;
6015;SDS011;3036;49.960;8.454;2023-02-01T12:27:13;2.10;;;0.87;;
6015;SDS011;3036;49.960;8.454;2023-02-01T12:29:48;2.00;;;0.60;;
6015;SDS011;3036;49.960;8.454;2023-02-01T12:32:22;2.03;;;0.50;;
6015;SDS011;3036;49.960;8.454;2023-02-01T12:34:58;0.77;;;0.77;;
6015;SDS011;3036;49.960;8.454;2023-02-01T12:37:33;3.30;;;1.50;;
6015;SDS011;3036;49.960;8.454;2023-02-01T12:40:07;2.30;;;1.00;;
6015;SDS011;3036;49.960;8.454;2023-02-01T12:42:41;1.50;;;0.97;;
6015;SDS011;3036;49.960;8.454;2023-02-01T12:45:11;0.60;;;0.60;;
6015;SDS011;3036;49.960;8.454;2023-02-01T12:47:39;3.13;;;0.73;;
6015;SDS011;3036;49.960;8.454;2023-02-01T12:50:12;1.50;;;0.67;;
6015;SDS011;3036;49.960;8.454;2023-02-01T12:52:44;0.60;;;0.60;;
6015;SDS011;3036;49.960;8.454;2023-02-01T12:55:16;4.13;;;0.70;;
6015;SDS011;3036;49.960;8.454;2023-02-01T12:57:45;0.80;;;0.80;;
6015;SDS011;3036;49.960;8.454;2023-02-01T13:00:16;0.77;;;0.70;;
6015;SDS011;3036;49.960;8.454;2023-02-01T13:02:49;1.37;;;0.77;;
6015;SDS011;3036;49.960;8.454;2023-02-01T13:05:18;2.30;;;1.40;;
6015;SDS011;3036;49.960;8.454;2023-02-01T13:07:48;3.07;;;0.90;;
6015;SDS011;3036;49.960;8.454;2023-02-01T13:10:16;11.73;;;2.27;;
6015;SDS011;3036;49.960;8.454;2023-02-01T13:12:45;4.43;;;0.73;;
6015;SDS011;3036;49.960;8.454;2023-02-01T13:15:16;3.07;;;0.80;;
6015;SDS011;3036;49.960;8.454;2023-02-01T13:17:44;11.33;;;0.70;;
6015;SDS011;3036;49.960;8.454;2023-02-01T13:20:15;6.60;;;0.83;;
6015;SDS011;3036;49.960;8.454;2023-02-01T13:22:45;5.97;;;0.70;;
6015;SDS011;3036;49.960;8.454;2023-02-01T13:25:17;6.03;;;1.13;;
6015;SDS011;3036;49.960;8.454;2023-02-01T13:27:46;3.00;;;0.63;;
6015;SDS011;3036;49.960;8.454;2023-02-01T13:30:14;1.13;;;0.60;;
6015;SDS011;3036;49.960;8.454;2023-02-01T13:35:43;12.13;;;1.60;;
6015;SDS011;3036;49.960;8.454;2023-02-01T13:38:18;2.80;;;1.40;;
6015;SDS011;3036;49.960;8.454;2023-02-01T13:40:51;4.87;;;1.77;;
6015;SDS011;3036;49.960;8.454;2023-02-01T13:43:22;1.53;;;0.90;;
6015;SDS011;3036;49.960;8.454;2023-02-01T13:45:52;2.77;;;1.13;;
6015;SDS011;3036;49.960;8.454;2023-02-01T13:48:24;2.60;;;0.80;;
6015;SDS011;3036;49.960;8.454;2023-02-01T13:50:53;2.03;;;0.77;;
6015;SDS011;3036;49.960;8.454;2023-02-01T13:53:23;5.70;;;1.50;;
6015;SDS011;3036;49.960;8.454;2023-02-01T13:55:55;1.87;;;0.70;;
6015;SDS011;3036;49.960;8.454;2023-02-01T13:58:29;0.63;;;0.63;;
6015;SDS011;3036;49.960;8.454;2023-02-01T14:03:45;1.70;;;0.63;;
6015;SDS011;3036;49.960;8.454;2023-02-01T14:06:17;2.50;;;0.57;;
6015;SDS011;3036;49.960;8.454;2023-02-01T14:08:45;7.47;;;0.70;;
6015;SDS011;3036;49.960;8.454;2023-02-01T14:11:38;1.77;;;0.80;;
6015;SDS011;3036;49.960;8.454;2023-02-01T14:19:36;2.20;;;0.73;;
6015;SDS011;3036;49.960;8.454;2023-02-01T14:24:49;2.10;;;0.90;;
6015;SDS011;3036;49.960;8.454;2023-02-01T14:27:20;4.13;;;1.00;;
6015;SDS011;3036;49.960;8.454;2023-02-01T14:29:50;2.30;;;1.00;;
6015;SDS011;3036;49.960;8.454;2023-02-01T14:32:23;3.07;;;1.27;;
6015;SDS011;3036;49.960;8.454;2023-02-01T14:34:51;1.87;;;0.90;;
6015;SDS011;3036;49.960;8.454;2023-02-01T14:37:26;4.73;;;1.33;;
6015;SDS011;3036;49.960;8.454;2023-02-01T14:39:55;2.20;;;1.70;;
6015;SDS011;3036;49.960;8.454;2023-02-01T14:42:27;2.63;;;0.93;;
6015;SDS011;3036;49.960;8.454;2023-02-01T14:44:55;2.20;;;1.20;;
6015;SDS011;3036;49.960;8.454;2023-02-01T14:47:27;0.30;;;0.30;;
6015;SDS011;3036;49.960;8.454;2023-02-01T14:50:02;3.53;;;0.60;;
6015;SDS011;3036;49.960;8.454;2023-02-01T14:52:32;5.63;;;1.10;;
6015;SDS011;3036;49.960;8.454;2023-02-01T14:55:00;1.87;;;0.93;;
6015;SDS011;3036;49.960;8.454;2023-02-01T14:57:30;5.07;;;0.60;;
6015;SDS011;3036;49.960;8.454;2023-02-01T14:59:59;2.93;;;1.00;;
6015;SDS011;3036;49.960;8.454;2023-02-01T15:02:27;2.27;;;0.70;;
6015;SDS011;3036;49.960;8.454;2023-02-01T15:04:56;3.33;;;1.07;;
6015;SDS011;3036;49.960;8.454;2023-02-01T15:07:24;4.37;;;1.17;;
6015;SDS011;3036;49.960;8.454;2023-02-01T15:09:52;4.77;;;1.33;;
6015;SDS011;3036;49.960;8.454;2023-02-01T15:12:22;4.00;;;0.80;;
6015;SDS011;3036;49.960;8.454;2023-02-01T15:15:09;0.90;;;0.80;;
6015;SDS011;3036;49.960;8.454;2023-02-01T15:17:36;2.10;;;0.83;;
6015;SDS011;3036;49.960;8.454;2023-02-01T15:20:11;1.67;;;0.90;;
6015;SDS011;3036;49.960;8.454;2023-02-01T15:22:38;3.00;;;0.90;;
6015;SDS011;3036;49.960;8.454;2023-02-01T15:27:44;4.90;;;0.90;;
6015;SDS011;3036;49.960;8.454;2023-02-01T15:30:16;1.60;;;0.80;;
6015;SDS011;3036;49.960;8.454;2023-02-01T15:32:46;6.57;;;1.13;;
6015;SDS011;3036;49.960;8.454;2023-02-01T15:38:18;2.53;;;1.10;;
6015;SDS011;3036;49.960;8.454;2023-02-01T15:40:52;5.20;;;0.73;;
6015;SDS011;3036;49.960;8.454;2023-02-01T15:43:20;3.00;;;0.43;;
6015;SDS011;3036;49.960;8.454;2023-02-01T15:45:49;2.80;;;0.70;;
6015;SDS011;3036;49.960;8.454;2023-02-01T15:48:21;2.60;;;0.77;;
6015;SDS011;3036;49.960;8.454;2023-02-01T15:50:53;0.80;;;0.57;;
6015;SDS011;3036;49.960;8.454;2023-02-01T15:53:21;4.60;;;1.40;;
6015;SDS011;3036;49.960;8.454;2023-02-01T15:55:51;2.23;;;1.20;;
6015;SDS011;3036;49.960;8.454;2023-02-01T15:58:19;2.40;;;1.07;;
6015;SDS011;3036;49.960;8.454;2023-02-01T16:00:47;5.07;;;1.50;;
6015;SDS011;3036;49.960;8.454;2023-02-01T16:03:24;5.90;;;1.70;;
6015;SDS011;3036;49.960;8.454;2023-02-01T16:05:54;2.97;;;1.70;;
6015;SDS011;3036;49.960;8.454;2023-02-01T16:08:22;0.90;;;0.83;;
6015;SDS011;3036;49.960;8.454;2023-02-01T16:10:50;1.70;;;0.83;;